Terminal Aerodrome Forecast
Issued by NWS Austin/San Antonio, TX

Home | Current Version | Previous Version | Text Only | Print | Product List | Glossary On
Versions: 1 2 3 4 5 6 7 8 9 10 11 12 13 14 15 16 17
000
FTUS44 KEWX 061732
TAFAUS
TAF
KAUS 061732Z 0618/0724 15015KT P6SM VCSH BKN040 BKN250
     FM070300 16011KT P6SM BKN012 OVC030
      TEMPO 0708/0712 BKN007 OVC030
     FM071500 16014KT P6SM VCSH BKN022
     FM071800 16014KT P6SM VCSH BKN035=

USA.gov is the U.S. government's official web portal to all federal, state and local government web resources and services.